Aérodrome :
LOGIN :

S'inscrire | Disclaimer

   EN    FR    IT 

 










Légende :    VFR   VFR Marginal   IFR   IFR Intensif   IFR Très Intensif
Visi : 
Plafond : 
>= 8 km
>= 3000ft
5 à 8 km
1000 à 3000 ft
1500m à 5 km
500 à 1000 ft
800 à 1500m
200 à 500 ft
< 800m
< 200 ft
Symboles :   Orages  Brouillard  Fortes neiges  Fortes précipitations  Vent > 20 kt
SIGMETs :   Divers  Orages  Givrage  Turbulence  Onde Orograph.  Cendres Volcan.







- Altitude de l'aérodrome : 1234 ft
- Code IATA : LUX


ELLX - Luxembourg Findel

DERNIER METAR :
  • 171550Z 23008KT 7000 SCT005 BKN007 05/04 Q1024 NOSIG

METARs EXPIRÉS :
  • 171520Z 22008KT 7000 BKN005 05/04 Q1023 NOSIG
  • 171450Z 22008KT 7000 SCT004 BKN006 05/04 Q1022 NOSIG
  • 171420Z 23007KT 6000 BKN005 BKN008 05/04 Q1022 NOSIG
  • 171350Z 23009KT 8000 SCT005 BKN007 05/04 Q1022 NOSIG
  • 171320Z 25012KT 210V270 6000 BKN004 05/04 Q1021 NOSIG

TAF TAF ELLX
Valide du 17 à 12h jusqu'au 18 à 18h UTC


171100Z 1712/1818 24010KT 9999 BKN008
BECMG 1712/1715 BKN010
BECMG 1718/1721 19005KT 4000 BR BKN006
PROB40
TEMPO 1721/1809 0200 FG OVC001
BECMG 1810/1813 13010KT FEW015
ATIS : +352 4798 27300
Météo : +352 4798 27010 / 27050
Pas de NOTAMs connus pour ce terrain.



MET'MAP, la Météo Aéronautique d'un coup d'oeil ! - Copyright ORBIFLY Décembre 2007 - Disclaimer

ORBIFLY MET'MAP TEAM :

Programmation & Développement : Alexandra Zaïnal
Conception & Développement : Baudouin d'Aumeries
Co-Programmation & Développement : Marc-Olivier Méhu
Soutien technique & logistique : Manuel Goepfert

Contact : metmap@orbifly.com




SOURCES & CREDITS :

   NOAA